createdAt,value
2022-10-22T00:00:17.723Z,12
2022-10-22T00:01:17.708Z,12
2022-10-22T00:02:17.774Z,12
2022-10-22T00:03:17.756Z,12
2022-10-22T00:04:17.739Z,12
2022-10-22T00:05:17.730Z,12
2022-10-22T00:06:17.724Z,12
2022-10-22T00:07:17.737Z,12
2022-10-22T00:08:17.740Z,12
2022-10-22T00:09:17.765Z,12
2022-10-22T00:10:17.762Z,12
2022-10-22T00:11:17.714Z,12
2022-10-22T00:12:17.735Z,12.1
2022-10-22T00:13:17.717Z,12.1
2022-10-22T00:14:17.761Z,12.2
2022-10-22T00:15:17.754Z,12.2
2022-10-22T00:16:17.749Z,12.2
2022-10-22T00:17:17.761Z,12.2
2022-10-22T00:18:17.742Z,12.2
2022-10-22T00:19:17.781Z,12.2
2022-10-22T00:20:17.771Z,12.2
2022-10-22T00:21:17.775Z,12.2
2022-10-22T00:22:17.749Z,12.2
2022-10-22T00:23:17.766Z,12.2
2022-10-22T00:24:17.751Z,12.1
2022-10-22T00:25:17.789Z,12.1
2022-10-22T00:26:17.763Z,12.1
2022-10-22T00:27:17.766Z,12.1
2022-10-22T00:28:17.750Z,12.1
2022-10-22T00:29:17.754Z,12.1
2022-10-22T00:30:17.786Z,12.1
2022-10-22T00:31:17.771Z,12.1
2022-10-22T00:32:17.766Z,12.1
2022-10-22T00:33:17.799Z,12.1
2022-10-22T00:34:17.797Z,12.1
2022-10-22T00:35:17.821Z,12.1
2022-10-22T00:36:17.783Z,12.2
2022-10-22T00:37:17.780Z,12.2
2022-10-22T00:38:17.796Z,12.2
2022-10-22T00:39:17.780Z,12.3
2022-10-22T00:40:17.820Z,12.3
2022-10-22T00:41:17.782Z,12.3
2022-10-22T00:42:17.810Z,12.4
2022-10-22T00:43:17.829Z,12.5
2022-10-22T00:44:17.795Z,12.5
2022-10-22T00:45:17.822Z,12.6
2022-10-22T00:46:17.838Z,12.7
2022-10-22T00:47:17.800Z,12.8
2022-10-22T00:48:17.816Z,12.9
2022-10-22T00:49:17.819Z,13
2022-10-22T00:50:17.838Z,13.1
2022-10-22T00:51:17.849Z,13.1
2022-10-22T00:52:17.821Z,13.2
2022-10-22T00:53:17.850Z,13.3
2022-10-22T00:54:17.853Z,13.3
2022-10-22T00:55:17.842Z,13.3
2022-10-22T00:56:17.837Z,13.3
2022-10-22T00:57:17.824Z,13.3
2022-10-22T00:58:17.847Z,13.3
2022-10-22T00:59:17.854Z,13.3
2022-10-22T01:00:17.847Z,13.3
2022-10-22T01:01:17.914Z,13.3
2022-10-22T01:02:17.852Z,13.3
2022-10-22T01:03:17.849Z,13.4
2022-10-22T01:04:17.879Z,13.4
2022-10-22T01:05:17.846Z,13.4
2022-10-22T01:06:17.858Z,13.4
2022-10-22T01:07:17.884Z,13.4
2022-10-22T01:08:17.900Z,13.5
2022-10-22T01:09:17.880Z,13.5
2022-10-22T01:10:17.894Z,13.5
2022-10-22T01:11:17.873Z,13.5
2022-10-22T01:12:17.885Z,13.6
2022-10-22T01:13:17.861Z,13.6
2022-10-22T01:14:17.871Z,13.6
2022-10-22T01:15:17.891Z,13.6
2022-10-22T01:16:17.866Z,13.7
2022-10-22T01:17:17.905Z,13.7
2022-10-22T01:18:17.889Z,13.8
2022-10-22T01:19:17.910Z,13.8
2022-10-22T01:20:17.900Z,13.8
2022-10-22T01:21:17.877Z,13.8
2022-10-22T01:22:17.865Z,13.9
2022-10-22T01:23:17.918Z,13.9
2022-10-22T01:24:17.871Z,13.9
2022-10-22T01:25:17.895Z,13.9
2022-10-22T01:26:17.958Z,14
2022-10-22T01:27:17.891Z,14
2022-10-22T01:28:17.895Z,14
2022-10-22T01:29:17.897Z,14
2022-10-22T01:30:17.900Z,14
2022-10-22T01:31:17.890Z,14.1
2022-10-22T01:32:17.912Z,14.1
2022-10-22T01:33:17.891Z,14.1
2022-10-22T01:34:17.889Z,14.1
2022-10-22T01:35:17.892Z,14.1
2022-10-22T01:36:17.891Z,14.2
2022-10-22T01:37:17.889Z,14.2
2022-10-22T01:38:17.898Z,14.2
2022-10-22T01:39:17.933Z,14.2
2022-10-22T01:40:17.946Z,14.3
2022-10-22T01:41:17.904Z,14.3
2022-10-22T01:42:17.926Z,14.3
2022-10-22T01:43:17.913Z,14.3
2022-10-22T01:44:17.937Z,14.3
2022-10-22T01:45:17.929Z,14.3
2022-10-22T01:46:17.935Z,14.2
2022-10-22T01:47:17.928Z,14.2
2022-10-22T01:48:17.930Z,14.1
2022-10-22T01:49:17.964Z,14.1
2022-10-22T01:50:17.957Z,14
2022-10-22T01:51:17.980Z,13.9
2022-10-22T01:52:17.956Z,13.9
2022-10-22T01:53:17.951Z,13.8
2022-10-22T01:54:17.943Z,13.7
2022-10-22T01:55:18.017Z,13.7
2022-10-22T01:56:17.959Z,13.6
2022-10-22T01:57:17.945Z,13.6
2022-10-22T01:58:17.972Z,13.6
2022-10-22T01:59:17.966Z,13.6
2022-10-22T02:00:17.955Z,13.6
2022-10-22T02:01:17.957Z,13.6
2022-10-22T02:02:17.952Z,13.6
2022-10-22T02:03:19.831Z,13.6
2022-10-22T02:04:18.004Z,13.6
2022-10-22T02:05:17.982Z,13.6
2022-10-22T02:06:17.984Z,13.7
2022-10-22T02:07:17.972Z,13.7
2022-10-22T02:08:17.987Z,13.7
2022-10-22T02:09:18.083Z,13.7
2022-10-22T02:10:17.997Z,13.8
2022-10-22T02:11:18.008Z,13.8
2022-10-22T02:12:18.009Z,13.9
2022-10-22T02:13:17.999Z,13.9
2022-10-22T02:14:18.016Z,13.9
2022-10-22T02:15:18.014Z,14
2022-10-22T02:16:18.018Z,14
2022-10-22T02:17:18.019Z,14
2022-10-22T02:18:18.002Z,14.1
2022-10-22T02:19:18.010Z,14.1
2022-10-22T02:20:18.056Z,14.1
2022-10-22T02:21:18.043Z,14.1
2022-10-22T02:22:18.010Z,14.1
2022-10-22T02:23:18.021Z,14.1
2022-10-22T02:24:18.044Z,14.1
2022-10-22T02:25:18.086Z,14.1
2022-10-22T02:26:18.026Z,14.1
2022-10-22T02:27:19.915Z,14.1
2022-10-22T02:28:18.054Z,14.1
2022-10-22T02:29:18.076Z,14.1
2022-10-22T02:30:18.193Z,14.1
2022-10-22T02:31:18.111Z,14.1
2022-10-22T02:32:18.079Z,14.1
2022-10-22T02:33:18.085Z,14.1
2022-10-22T02:34:18.107Z,14.1
2022-10-22T02:35:18.116Z,14.1
2022-10-22T02:36:18.120Z,14.1
2022-10-22T02:37:18.106Z,14.1
2022-10-22T02:38:18.100Z,14.1
2022-10-22T02:39:18.104Z,14.1
2022-10-22T02:40:18.108Z,14
2022-10-22T02:41:18.112Z,14
2022-10-22T02:42:18.115Z,14
2022-10-22T02:43:18.147Z,14
2022-10-22T02:44:18.225Z,14
2022-10-22T02:45:18.132Z,14
2022-10-22T02:46:18.099Z,14
2022-10-22T02:47:18.129Z,14
2022-10-22T02:48:18.190Z,14.1
2022-10-22T02:49:18.112Z,14.1
2022-10-22T02:50:18.117Z,14.1
2022-10-22T02:51:18.100Z,14.1
2022-10-22T02:52:18.092Z,14.1
2022-10-22T02:53:18.131Z,14.1
2022-10-22T02:54:18.105Z,14.1
2022-10-22T02:55:18.140Z,14.1
2022-10-22T02:56:18.121Z,14.2
2022-10-22T02:57:18.143Z,14.1
2022-10-22T02:58:18.108Z,14.1
2022-10-22T02:59:18.147Z,14.1
2022-10-22T03:00:18.172Z,14.1
2022-10-22T03:01:18.165Z,14.1
2022-10-22T03:02:18.145Z,14.1
2022-10-22T03:03:18.167Z,14.1
2022-10-22T03:04:18.144Z,14
2022-10-22T03:05:18.157Z,14
2022-10-22T03:06:18.271Z,14
2022-10-22T03:07:18.151Z,14
2022-10-22T03:08:18.146Z,14
2022-10-22T03:09:20.103Z,13.9
2022-10-22T03:10:18.204Z,13.9
2022-10-22T03:11:18.154Z,13.9
2022-10-22T03:12:18.158Z,13.9
2022-10-22T03:13:18.188Z,13.9
2022-10-22T03:14:18.185Z,13.9
2022-10-22T03:15:18.353Z,13.8
2022-10-22T03:16:18.198Z,13.8
2022-10-22T03:17:18.191Z,13.8
2022-10-22T03:18:18.217Z,13.8
2022-10-22T03:19:18.217Z,13.8
2022-10-22T03:20:18.214Z,13.8
2022-10-22T03:21:18.198Z,13.8
2022-10-22T03:22:18.215Z,13.8
2022-10-22T03:23:18.207Z,13.8
2022-10-22T03:24:18.236Z,13.8
2022-10-22T03:25:18.231Z,13.8
2022-10-22T03:26:18.216Z,13.8
2022-10-22T03:27:18.240Z,13.8
2022-10-22T03:28:18.223Z,13.8
2022-10-22T03:29:18.227Z,13.8
2022-10-22T03:30:18.236Z,13.8
2022-10-22T03:31:18.265Z,13.8
2022-10-22T03:32:18.228Z,13.8
2022-10-22T03:33:18.248Z,13.8
2022-10-22T03:34:18.242Z,13.7
2022-10-22T03:35:18.252Z,13.7
2022-10-22T03:36:18.260Z,13.7
2022-10-22T03:37:18.249Z,13.7
2022-10-22T03:38:18.253Z,13.6
2022-10-22T03:39:18.242Z,13.6
2022-10-22T03:40:18.273Z,13.6
2022-10-22T03:41:18.253Z,13.6
2022-10-22T03:42:18.294Z,13.6
2022-10-22T03:43:18.263Z,13.6
2022-10-22T03:44:18.287Z,13.5
2022-10-22T03:45:18.294Z,13.5
2022-10-22T03:46:18.278Z,13.5
2022-10-22T03:47:18.324Z,13.5
2022-10-22T03:48:18.271Z,13.5
2022-10-22T03:49:18.284Z,13.5
2022-10-22T03:50:18.293Z,13.5
2022-10-22T03:51:18.302Z,13.5
2022-10-22T03:52:18.312Z,13.5
2022-10-22T03:53:18.308Z,13.4
2022-10-22T03:54:18.326Z,13.4
2022-10-22T03:55:18.335Z,13.4
2022-10-22T03:56:18.325Z,13.4
2022-10-22T03:57:18.330Z,13.4
2022-10-22T03:58:18.345Z,13.3
2022-10-22T03:59:18.367Z,13.3
2022-10-22T04:00:18.377Z,13.3
2022-10-22T04:01:18.439Z,13.2
2022-10-22T04:02:18.352Z,13.2
2022-10-22T04:03:18.383Z,13.2
2022-10-22T04:04:18.342Z,13.1
2022-10-22T04:05:18.437Z,13.1
2022-10-22T04:06:18.351Z,13.1
2022-10-22T04:07:18.355Z,13
2022-10-22T04:08:18.355Z,13
2022-10-22T04:09:18.378Z,13
2022-10-22T04:10:18.388Z,12.9
2022-10-22T04:11:18.348Z,12.9
2022-10-22T04:12:18.388Z,12.9
2022-10-22T04:13:18.360Z,12.9
2022-10-22T04:14:18.374Z,12.8
2022-10-22T04:15:18.396Z,12.8
2022-10-22T04:16:18.399Z,12.8
2022-10-22T04:17:18.402Z,12.8
2022-10-22T04:18:18.392Z,12.8
2022-10-22T04:19:18.444Z,12.9
2022-10-22T04:20:18.394Z,12.9
2022-10-22T04:21:18.419Z,12.9
2022-10-22T04:22:18.390Z,12.9
2022-10-22T04:23:18.400Z,12.9
2022-10-22T04:24:18.414Z,12.9
2022-10-22T04:25:18.431Z,12.9
2022-10-22T04:26:18.403Z,12.8
2022-10-22T04:27:18.394Z,12.8
2022-10-22T04:28:18.444Z,12.7
2022-10-22T04:29:18.414Z,12.6
2022-10-22T04:30:18.432Z,12.6
2022-10-22T04:31:18.414Z,12.5
2022-10-22T04:32:18.428Z,12.4
2022-10-22T04:33:18.419Z,12.4
2022-10-22T04:34:18.429Z,12.3
2022-10-22T04:35:18.534Z,12.3
2022-10-22T04:36:18.441Z,12.3
2022-10-22T04:37:18.439Z,12.3
2022-10-22T04:38:18.469Z,12.3
2022-10-22T04:39:18.465Z,12.3
2022-10-22T04:40:18.486Z,12.3
2022-10-22T04:41:18.451Z,12.3
2022-10-22T04:42:18.451Z,12.3
2022-10-22T04:43:18.449Z,12.2
2022-10-22T04:44:18.451Z,12.2
2022-10-22T04:45:18.572Z,12.2
2022-10-22T04:46:18.459Z,12.1
2022-10-22T04:47:18.492Z,12.1
2022-10-22T04:48:18.491Z,12
2022-10-22T04:49:18.473Z,11.9
2022-10-22T04:50:18.488Z,11.9
2022-10-22T04:51:18.498Z,11.9
2022-10-22T04:52:18.478Z,11.8
2022-10-22T04:53:18.488Z,11.8
2022-10-22T04:54:18.520Z,11.8
2022-10-22T04:55:18.556Z,11.8
2022-10-22T04:56:18.484Z,11.8
2022-10-22T04:57:18.490Z,11.8
2022-10-22T04:58:18.512Z,11.8
2022-10-22T04:59:18.499Z,11.8
2022-10-22T05:00:18.532Z,11.8
2022-10-22T05:01:18.598Z,11.8
2022-10-22T05:02:18.532Z,11.8
2022-10-22T05:03:18.685Z,11.8
2022-10-22T05:04:18.510Z,11.8
2022-10-22T05:05:18.553Z,11.8
2022-10-22T05:06:18.556Z,11.8
2022-10-22T05:07:18.555Z,11.8
2022-10-22T05:08:18.538Z,11.8
2022-10-22T05:09:18.613Z,11.9
2022-10-22T05:10:18.555Z,11.9
2022-10-22T05:11:18.573Z,11.9
2022-10-22T05:12:18.575Z,11.9
2022-10-22T05:13:18.538Z,11.9
2022-10-22T05:14:18.560Z,11.8
2022-10-22T05:15:18.566Z,11.8
2022-10-22T05:16:18.565Z,11.8
2022-10-22T05:17:18.550Z,11.8
2022-10-22T05:18:20.290Z,11.8
2022-10-22T05:19:18.541Z,11.8
2022-10-22T05:20:18.587Z,11.7
2022-10-22T05:21:18.548Z,11.7
2022-10-22T05:22:18.559Z,11.6
2022-10-22T05:23:18.577Z,11.6
2022-10-22T05:24:18.649Z,11.6
2022-10-22T05:25:18.594Z,11.6
2022-10-22T05:26:18.563Z,11.5
2022-10-22T05:28:18.576Z,11.4
2022-10-22T05:29:18.569Z,11.4
2022-10-22T05:30:18.569Z,11.4
2022-10-22T05:31:18.721Z,11.3
2022-10-22T05:32:18.577Z,11.3
2022-10-22T05:33:21.867Z,11.3
2022-10-22T05:34:18.595Z,11.2
2022-10-22T05:35:18.591Z,11.2
2022-10-22T05:36:18.571Z,11.2
2022-10-22T05:37:18.586Z,11.1
2022-10-22T05:38:18.582Z,11.1
2022-10-22T05:39:18.607Z,11
2022-10-22T05:40:30.261Z,11
2022-10-22T05:41:18.585Z,11
2022-10-22T05:42:18.578Z,10.9
2022-10-22T05:43:18.580Z,10.9
2022-10-22T05:44:18.565Z,10.9
2022-10-22T05:45:18.586Z,10.9
2022-10-22T05:46:22.126Z,10.8
2022-10-22T05:47:18.607Z,10.8
2022-10-22T05:48:18.587Z,10.8
2022-10-22T05:49:18.584Z,10.8
2022-10-22T05:50:18.592Z,10.8
2022-10-22T05:51:18.584Z,10.8
2022-10-22T05:52:18.586Z,10.9
2022-10-22T05:53:18.611Z,10.9
2022-10-22T05:54:18.635Z,10.9
2022-10-22T05:55:18.645Z,10.9
2022-10-22T05:56:18.607Z,10.9
2022-10-22T05:57:18.614Z,10.9
2022-10-22T05:58:18.604Z,10.9
2022-10-22T05:59:18.604Z,10.9
2022-10-22T06:00:18.643Z,10.9
2022-10-22T06:01:18.612Z,10.9
2022-10-22T06:02:18.638Z,10.8
2022-10-22T06:03:18.636Z,10.8
2022-10-22T06:04:18.627Z,10.8
2022-10-22T06:05:18.671Z,10.8
2022-10-22T06:06:18.645Z,10.7
2022-10-22T06:07:18.645Z,10.7
2022-10-22T06:08:19.067Z,10.7
2022-10-22T06:09:18.653Z,10.6
2022-10-22T06:10:18.721Z,10.6
2022-10-22T06:11:18.693Z,10.6
2022-10-22T06:12:18.672Z,10.6
2022-10-22T06:13:18.666Z,10.6
2022-10-22T06:14:18.679Z,10.6
2022-10-22T06:15:18.744Z,10.6
2022-10-22T06:16:18.693Z,10.6
2022-10-22T06:17:18.685Z,10.6
2022-10-22T06:18:18.681Z,10.6
2022-10-22T06:19:18.687Z,10.6
2022-10-22T06:20:18.696Z,10.6
2022-10-22T06:21:18.691Z,10.6
2022-10-22T06:22:18.674Z,10.6
2022-10-22T06:23:18.713Z,10.6
2022-10-22T06:24:18.687Z,10.6
2022-10-22T06:25:18.704Z,10.6
2022-10-22T06:26:18.684Z,10.5
2022-10-22T06:27:18.762Z,10.5
2022-10-22T06:28:18.720Z,10.5
2022-10-22T06:29:18.719Z,10.5
2022-10-22T06:30:18.718Z,10.6
2022-10-22T06:31:18.720Z,10.6
2022-10-22T06:32:18.702Z,10.6
2022-10-22T06:33:18.714Z,10.6
2022-10-22T06:34:18.743Z,10.6
2022-10-22T06:35:18.736Z,10.6
2022-10-22T06:36:18.727Z,10.7
2022-10-22T06:37:18.760Z,10.7
2022-10-22T06:38:18.734Z,10.7
2022-10-22T06:39:18.734Z,10.7
2022-10-22T06:40:18.745Z,10.8
2022-10-22T06:41:18.731Z,10.8
2022-10-22T06:42:18.895Z,10.7
2022-10-22T06:43:18.823Z,10.7
2022-10-22T06:44:18.791Z,10.8
2022-10-22T06:45:18.776Z,10.8
2022-10-22T06:46:19.201Z,10.8
2022-10-22T06:47:18.766Z,10.8
2022-10-22T06:48:18.768Z,10.8
2022-10-22T06:49:18.765Z,10.8
2022-10-22T06:50:18.780Z,10.8
2022-10-22T06:51:18.772Z,10.8
2022-10-22T06:52:18.760Z,10.9
2022-10-22T06:54:18.777Z,10.9
2022-10-22T06:55:18.775Z,10.9
2022-10-22T06:56:18.767Z,11
2022-10-22T06:57:18.775Z,11
2022-10-22T06:58:18.762Z,11
2022-10-22T06:59:18.781Z,11
2022-10-22T07:00:18.842Z,11
2022-10-22T07:01:18.822Z,11
2022-10-22T07:02:18.758Z,11.1
2022-10-22T07:03:18.760Z,11.1
2022-10-22T07:04:18.788Z,11.1
2022-10-22T07:05:18.810Z,11.1
2022-10-22T07:06:18.774Z,11.2
2022-10-22T07:07:18.806Z,11.2
2022-10-22T07:08:18.793Z,11.2
2022-10-22T07:10:18.835Z,11.3
2022-10-22T07:11:18.789Z,11.3
2022-10-22T07:12:18.787Z,11.4
2022-10-22T07:13:18.794Z,11.4
2022-10-22T07:14:18.779Z,11.4
2022-10-22T07:15:18.842Z,11.4
2022-10-22T07:16:18.790Z,11.5
2022-10-22T07:17:18.787Z,11.5
2022-10-22T07:18:18.789Z,11.5
2022-10-22T07:19:18.813Z,11.5
2022-10-22T07:20:18.824Z,11.6
2022-10-22T07:21:18.881Z,11.6
2022-10-22T07:22:19.004Z,11.6
2022-10-22T07:23:18.918Z,11.7
2022-10-22T07:24:18.795Z,11.7
2022-10-22T07:25:18.815Z,11.7
2022-10-22T07:26:18.813Z,11.7
2022-10-22T07:27:18.802Z,11.7
2022-10-22T07:28:18.805Z,11.7
2022-10-22T07:29:18.829Z,11.7
2022-10-22T07:30:18.837Z,11.7
2022-10-22T07:31:18.832Z,11.7
2022-10-22T07:32:21.694Z,11.6
2022-10-22T07:33:18.811Z,11.6
2022-10-22T07:35:18.825Z,11.6
2022-10-22T07:36:18.835Z,11.6
2022-10-22T07:37:18.845Z,11.6
2022-10-22T07:38:18.856Z,11.6
2022-10-22T07:39:18.840Z,11.6
2022-10-22T07:40:18.853Z,11.7
2022-10-22T07:41:18.834Z,11.7
2022-10-22T07:42:18.946Z,11.7
2022-10-22T07:43:18.861Z,11.7
2022-10-22T07:44:18.855Z,11.8
2022-10-22T07:45:18.872Z,11.8
2022-10-22T07:46:18.856Z,11.8
2022-10-22T07:47:18.876Z,11.8
2022-10-22T07:48:18.851Z,11.9
2022-10-22T07:49:18.880Z,12
2022-10-22T07:50:18.881Z,12
2022-10-22T07:51:18.857Z,12.1
2022-10-22T07:52:18.895Z,12.1
2022-10-22T07:53:18.880Z,12.1
2022-10-22T07:54:18.861Z,12.2
2022-10-22T07:55:18.891Z,12.2
2022-10-22T07:56:18.902Z,12.3
2022-10-22T07:57:18.889Z,12.3
2022-10-22T07:58:18.885Z,12.3
2022-10-22T07:59:18.930Z,12.3
2022-10-22T08:00:20.418Z,12.4
2022-10-22T08:01:18.907Z,12.4
2022-10-22T08:02:18.920Z,12.5
2022-10-22T08:03:18.921Z,12.5
2022-10-22T08:04:18.924Z,12.5
2022-10-22T08:05:18.908Z,12.6
2022-10-22T08:06:18.904Z,12.6
2022-10-22T08:07:18.962Z,12.7
2022-10-22T08:08:18.903Z,12.7
2022-10-22T08:09:18.927Z,12.7
2022-10-22T08:10:18.945Z,12.7
2022-10-22T08:11:18.910Z,12.8
2022-10-22T08:12:18.910Z,12.8
2022-10-22T08:13:18.895Z,12.8
2022-10-22T08:14:18.912Z,12.8
2022-10-22T08:15:18.921Z,12.8
2022-10-22T08:16:18.904Z,12.8
2022-10-22T08:17:18.896Z,12.8
2022-10-22T08:18:18.934Z,12.8
2022-10-22T08:19:18.953Z,12.9
2022-10-22T08:20:18.918Z,12.9
2022-10-22T08:21:18.953Z,12.9
2022-10-22T08:22:19.080Z,13
2022-10-22T08:23:18.936Z,13
2022-10-22T08:24:18.949Z,13.1
2022-10-22T08:25:19.114Z,13.2
2022-10-22T08:26:18.932Z,13.4
2022-10-22T08:27:18.948Z,13.5
2022-10-22T08:28:19.918Z,13.7
2022-10-22T08:29:18.964Z,13.8
2022-10-22T08:30:18.957Z,14
2022-10-22T08:31:18.946Z,14.1
2022-10-22T08:32:18.991Z,14.3
2022-10-22T08:33:18.955Z,14.3
2022-10-22T08:34:18.947Z,14.5
2022-10-22T08:35:19.004Z,14.5
2022-10-22T08:36:19.061Z,14.5
2022-10-22T08:37:19.084Z,14.5
2022-10-22T08:38:18.999Z,14.5
2022-10-22T08:39:18.970Z,14.5
2022-10-22T08:40:19.020Z,14.5
2022-10-22T08:41:18.985Z,14.5
2022-10-22T08:42:18.969Z,14.6
2022-10-22T08:43:18.986Z,14.6
2022-10-22T08:44:18.971Z,14.7
2022-10-22T08:45:18.980Z,14.8
2022-10-22T08:46:18.970Z,14.9
2022-10-22T08:47:21.438Z,14.9
2022-10-22T08:48:18.977Z,15
2022-10-22T08:49:18.993Z,15
2022-10-22T08:50:19.042Z,15.1
2022-10-22T08:51:19.023Z,15.1
2022-10-22T08:52:18.989Z,15.2
2022-10-22T08:53:19.061Z,15.2
2022-10-22T08:54:18.990Z,15.2
2022-10-22T08:55:19.011Z,15.2
2022-10-22T08:56:19.003Z,15.3
2022-10-22T08:57:19.092Z,15.3
2022-10-22T08:58:19.022Z,15.4
2022-10-22T08:59:19.004Z,15.4
2022-10-22T09:00:19.090Z,15.3
2022-10-22T09:01:19.014Z,15.4
2022-10-22T09:02:19.015Z,15.4
2022-10-22T09:03:19.062Z,15.4
2022-10-22T09:04:19.015Z,15.4
2022-10-22T09:05:19.036Z,15.5
2022-10-22T09:06:19.054Z,15.5
2022-10-22T09:07:19.068Z,15.5
2022-10-22T09:08:19.062Z,15.5
2022-10-22T09:09:19.070Z,15.5
2022-10-22T09:10:19.134Z,15.5
2022-10-22T09:11:19.044Z,15.5
2022-10-22T09:12:19.396Z,15.6
2022-10-22T09:13:19.047Z,15.6
2022-10-22T09:14:19.096Z,15.7
2022-10-22T09:15:19.063Z,15.7
2022-10-22T09:16:19.069Z,15.7
2022-10-22T09:17:19.083Z,15.7
2022-10-22T09:18:19.121Z,15.8
2022-10-22T09:19:19.074Z,15.8
2022-10-22T09:20:19.100Z,15.9
2022-10-22T09:21:19.084Z,15.9
2022-10-22T09:22:19.084Z,15.9
2022-10-22T09:23:19.121Z,15.9
2022-10-22T09:24:19.087Z,16
2022-10-22T09:25:19.107Z,16
2022-10-22T09:26:19.083Z,16
2022-10-22T09:27:19.090Z,16
2022-10-22T09:28:19.099Z,16
2022-10-22T09:29:19.091Z,16
2022-10-22T09:30:19.124Z,16
2022-10-22T09:31:19.120Z,16
2022-10-22T09:32:19.123Z,16
2022-10-22T09:33:20.232Z,16
2022-10-22T09:34:19.108Z,16
2022-10-22T09:35:19.128Z,16
2022-10-22T09:36:19.098Z,16
2022-10-22T09:37:19.120Z,16
2022-10-22T09:38:19.127Z,16
2022-10-22T09:39:19.169Z,16.1
2022-10-22T09:40:19.136Z,16.1
2022-10-22T09:41:19.099Z,16.1
2022-10-22T09:42:19.135Z,16.1
2022-10-22T09:43:19.122Z,16.1
2022-10-22T09:44:19.127Z,16.1
2022-10-22T09:45:19.154Z,16.2
2022-10-22T09:46:19.131Z,16.2
2022-10-22T09:47:19.153Z,16.3
2022-10-22T09:48:19.128Z,16.3
2022-10-22T09:49:19.138Z,16.4
2022-10-22T09:50:19.152Z,16.4
2022-10-22T09:51:19.125Z,16.4
2022-10-22T09:52:19.108Z,16.4
2022-10-22T09:53:19.127Z,16.5
2022-10-22T09:54:19.138Z,16.5
2022-10-22T09:55:19.189Z,16.5
2022-10-22T09:56:19.234Z,16.6
2022-10-22T09:57:19.145Z,16.6
2022-10-22T09:58:19.183Z,16.6
2022-10-22T09:59:19.133Z,16.7
2022-10-22T10:00:19.179Z,16.7
2022-10-22T10:01:19.137Z,16.7
2022-10-22T10:02:33.857Z,16.7
2022-10-22T10:03:19.318Z,16.7
2022-10-22T10:04:19.203Z,16.8
2022-10-22T10:05:19.166Z,16.8
2022-10-22T10:06:19.176Z,16.8
2022-10-22T10:07:19.196Z,16.8
2022-10-22T10:08:19.188Z,16.8
2022-10-22T10:09:19.279Z,16.8
2022-10-22T10:10:19.183Z,16.8
2022-10-22T10:11:19.205Z,16.8
2022-10-22T10:12:19.171Z,16.8
2022-10-22T10:13:19.217Z,16.8
2022-10-22T10:14:19.178Z,16.8
2022-10-22T10:15:19.207Z,16.8
2022-10-22T10:16:19.191Z,16.8
2022-10-22T10:17:19.197Z,16.8
2022-10-22T10:18:19.194Z,16.8
2022-10-22T10:19:19.236Z,16.8
2022-10-22T10:20:19.206Z,16.8
2022-10-22T10:21:19.213Z,16.8
2022-10-22T10:22:19.199Z,16.9
2022-10-22T10:23:20.584Z,17
2022-10-22T10:24:19.203Z,17
2022-10-22T10:25:19.230Z,17
2022-10-22T10:26:19.231Z,17.1
2022-10-22T10:27:19.227Z,17.1
2022-10-22T10:28:19.205Z,17.2
2022-10-22T10:29:19.244Z,17.2
2022-10-22T10:30:19.280Z,17.3
2022-10-22T10:31:19.249Z,17.3
2022-10-22T10:32:21.029Z,17.3
2022-10-22T10:33:19.228Z,17.4
2022-10-22T10:34:19.277Z,17.4
2022-10-22T10:35:19.395Z,17.5
2022-10-22T10:36:19.249Z,17.5
2022-10-22T10:37:19.231Z,17.6
2022-10-22T10:38:19.253Z,17.6
2022-10-22T10:39:19.252Z,17.6
2022-10-22T10:40:19.240Z,17.6
2022-10-22T10:41:19.240Z,17.7
2022-10-22T10:42:19.242Z,17.7
2022-10-22T10:43:19.275Z,17.7
2022-10-22T10:44:19.242Z,17.7
2022-10-22T10:45:19.273Z,17.7
2022-10-22T10:46:19.313Z,17.8
2022-10-22T10:47:19.250Z,17.8
2022-10-22T10:48:19.282Z,17.8
2022-10-22T10:49:19.264Z,17.9
2022-10-22T10:50:19.294Z,17.9
2022-10-22T10:51:19.264Z,17.9
2022-10-22T10:52:20.558Z,17.9
2022-10-22T10:53:19.276Z,18
2022-10-22T10:54:19.284Z,18
2022-10-22T10:55:19.293Z,18
2022-10-22T10:56:19.289Z,18.1
2022-10-22T10:57:19.268Z,18.1
2022-10-22T10:58:19.295Z,18.2
2022-10-22T10:59:19.339Z,18.2
2022-10-22T11:00:19.302Z,18.2
2022-10-22T11:01:19.350Z,18.2
2022-10-22T11:02:19.287Z,18.2
2022-10-22T11:03:19.301Z,18.2
2022-10-22T11:04:19.291Z,18.2
2022-10-22T11:05:19.341Z,18.2
2022-10-22T11:06:20.443Z,18.1
2022-10-22T11:07:30.129Z,18.1
2022-10-22T11:08:19.304Z,18.1
2022-10-22T11:09:19.351Z,18
2022-10-22T11:10:19.331Z,18
2022-10-22T11:11:19.499Z,18
2022-10-22T11:12:19.303Z,18
2022-10-22T11:13:19.339Z,17.9
2022-10-22T11:14:19.341Z,17.9
2022-10-22T11:15:19.508Z,17.9
2022-10-22T11:16:19.318Z,17.8
2022-10-22T11:17:19.332Z,17.8
2022-10-22T11:18:19.324Z,17.7
2022-10-22T11:19:22.748Z,17.7
2022-10-22T11:20:19.380Z,17.7
2022-10-22T11:21:19.338Z,17.6
2022-10-22T11:22:21.432Z,17.6
2022-10-22T11:23:21.205Z,17.6
2022-10-22T11:24:19.359Z,17.5
2022-10-22T11:25:19.379Z,17.5
2022-10-22T11:26:19.357Z,17.4
2022-10-22T11:27:19.363Z,17.4
2022-10-22T11:28:19.385Z,17.4
2022-10-22T11:29:19.356Z,17.4
2022-10-22T11:30:19.415Z,17.4
2022-10-22T11:31:19.385Z,17.4
2022-10-22T11:32:19.394Z,17.4
2022-10-22T11:33:19.388Z,17.4
2022-10-22T11:34:33.024Z,17.4
2022-10-22T11:35:23.535Z,17.4
2022-10-22T11:36:19.423Z,17.4
2022-10-22T11:37:19.421Z,17.4
2022-10-22T11:38:19.388Z,17.4
2022-10-22T11:39:19.408Z,17.5
2022-10-22T11:40:19.407Z,17.5
2022-10-22T11:41:19.390Z,17.5
2022-10-22T11:42:19.409Z,17.5
2022-10-22T11:43:19.388Z,17.5
2022-10-22T11:44:19.391Z,17.6
2022-10-22T11:45:19.457Z,17.6
2022-10-22T11:46:19.403Z,17.6
2022-10-22T11:47:19.438Z,17.6
2022-10-22T11:48:19.411Z,17.7
2022-10-22T11:49:19.409Z,17.7
2022-10-22T11:50:19.428Z,17.8
2022-10-22T11:51:19.411Z,17.8
2022-10-22T11:52:19.403Z,17.8
2022-10-22T11:53:19.428Z,17.9
2022-10-22T11:54:19.406Z,17.9
2022-10-22T11:55:19.421Z,17.9
2022-10-22T11:56:19.440Z,17.9
2022-10-22T11:57:19.457Z,18
2022-10-22T11:58:19.454Z,18
2022-10-22T11:59:19.416Z,18
2022-10-22T12:00:19.443Z,18.1
2022-10-22T12:01:19.434Z,18.2
2022-10-22T12:02:19.463Z,18.2
2022-10-22T12:03:19.474Z,18.3
2022-10-22T12:04:19.527Z,18.3
2022-10-22T12:05:19.451Z,18.4
2022-10-22T12:06:19.451Z,18.4
2022-10-22T12:07:19.464Z,18.5
2022-10-22T12:08:19.451Z,18.5
2022-10-22T12:09:19.501Z,18.6
2022-10-22T12:10:19.477Z,18.7
2022-10-22T12:11:19.458Z,18.8
2022-10-22T12:12:19.471Z,18.8
2022-10-22T12:13:19.449Z,18.9
2022-10-22T12:14:19.445Z,19
2022-10-22T12:15:19.477Z,19
2022-10-22T12:16:23.676Z,19
2022-10-22T12:17:19.484Z,19
2022-10-22T12:18:19.507Z,19
2022-10-22T12:19:19.504Z,19
2022-10-22T12:20:19.494Z,19.1
2022-10-22T12:21:19.474Z,19.1
2022-10-22T12:22:19.494Z,19.1
2022-10-22T12:23:19.515Z,19.1
2022-10-22T12:24:19.505Z,19.1
2022-10-22T12:25:19.503Z,19.1
2022-10-22T12:26:19.537Z,19.1
2022-10-22T12:27:22.264Z,19.1
2022-10-22T12:28:19.545Z,19.1
2022-10-22T12:29:19.521Z,19.1
2022-10-22T12:30:19.531Z,19.1
2022-10-22T12:31:19.514Z,19.1
2022-10-22T12:32:19.511Z,19.1
2022-10-22T12:33:19.530Z,19.2
2022-10-22T12:34:19.522Z,19.2
2022-10-22T12:35:19.601Z,19.2
2022-10-22T12:36:19.533Z,19.3
2022-10-22T12:37:19.553Z,19.3
2022-10-22T12:38:19.533Z,19.3
2022-10-22T12:39:19.519Z,19.2
2022-10-22T12:40:19.567Z,19.2
2022-10-22T12:41:19.566Z,19.3
2022-10-22T12:42:19.544Z,19.3
2022-10-22T12:43:19.540Z,19.3
2022-10-22T12:44:19.546Z,19.3
2022-10-22T12:45:19.556Z,19.4
2022-10-22T12:46:19.552Z,19.4
2022-10-22T12:47:19.545Z,19.5
2022-10-22T12:48:19.543Z,19.5
2022-10-22T12:49:19.546Z,19.5
2022-10-22T12:50:19.562Z,19.5
2022-10-22T12:51:19.635Z,19.5
2022-10-22T12:52:19.592Z,19.5
2022-10-22T12:53:19.580Z,19.4
2022-10-22T12:54:19.557Z,19.4
2022-10-22T12:55:19.614Z,19.4
2022-10-22T12:56:19.596Z,19.4
2022-10-22T12:57:19.594Z,19.4
2022-10-22T12:58:19.580Z,19.3
2022-10-22T12:59:19.581Z,19.3
2022-10-22T13:00:19.633Z,19.2
2022-10-22T13:01:19.681Z,19.2
2022-10-22T13:02:19.601Z,19.1
2022-10-22T13:03:19.605Z,19.1
2022-10-22T13:04:19.594Z,19.1
2022-10-22T13:05:19.635Z,19.1
2022-10-22T13:06:19.644Z,19.2
2022-10-22T13:07:21.192Z,19.3
2022-10-22T13:08:19.686Z,19.4
2022-10-22T13:09:21.457Z,19.4
2022-10-22T13:10:19.641Z,19.5
2022-10-22T13:11:19.618Z,19.5
2022-10-22T13:12:19.655Z,19.5
2022-10-22T13:13:19.622Z,19.5
2022-10-22T13:14:19.640Z,19.5
2022-10-22T13:15:19.642Z,19.5
2022-10-22T13:16:19.638Z,19.5
2022-10-22T13:17:19.657Z,19.4
2022-10-22T13:18:19.637Z,19.4
2022-10-22T13:19:19.636Z,19.3
2022-10-22T13:20:19.674Z,19.2
2022-10-22T13:21:19.647Z,19.2
2022-10-22T13:22:19.675Z,19.1
2022-10-22T13:23:19.666Z,19
2022-10-22T13:24:19.663Z,19
2022-10-22T13:25:19.659Z,18.9
2022-10-22T13:26:19.645Z,18.8
2022-10-22T13:27:19.652Z,18.8
2022-10-22T13:28:19.655Z,18.8